Terminal Aerodrome Forecast
Issued by NWS

Home | Current Version | Previous Version | Text Only | Print | Product List | Glossary On
Versions: 1 2 3 4 5 6 7 8 9 10 11 12 13
000
FTUS43 KMQT 011122
TAFCMX
TAF
KCMX 011122Z 0112/0212 29010KT P6SM SCT090
     FM011500 29017G24KT P6SM SCT080
     FM020100 27009KT P6SM BKN100
     FM020600 25005KT P6SM VCSH BKN080=

USA.gov is the U.S. government's official web portal to all federal, state and local government web resources and services.